Elba, Minnesota
Current Conditions -  °F | °C
As of 9:14 AM on Saturday 25 Oct 2014 (Local Time) from KONA Reporting Station
Clear Clear  
Wind Chill: 55°   Ceiling: Unl
Heat Index: 55°   Visibility: 10mi
Dew Point: 39°   Wind: 10mph
Humidity: 54%   Direction: 300°WNW
Pressure: 30.01"   Gusts: NA
Location:  44.1503°N, 91.9879°W
Report Text: KONA 251414Z AUTO 30009KT 10SM CLR 13/04 A3001 RMK AO2
Loading
Personal Weather Stations






























Interactive Weather Map
Tropical Storm Tracking
New forecast layout! Learn more

10-Day Weather Forecast

Advertisements
Track Severe Weather on mobile